createdAt,value
2019-02-23T08:56:10.294Z,14.20
2019-02-23T08:58:39.152Z,15.03
2019-02-23T09:01:08.223Z,15.53
2019-02-23T09:03:37.187Z,15.67
2019-02-23T09:06:06.192Z,23.43
2019-02-23T09:08:35.002Z,17.63
2019-02-23T09:11:03.937Z,18.57
2019-02-23T09:13:32.635Z,15.73
2019-02-23T09:16:01.513Z,14.73
2019-02-23T09:18:31.979Z,18.27
2019-02-23T09:21:00.852Z,15.13
2019-02-23T09:23:29.792Z,12.60
2019-02-23T09:25:58.968Z,13.20
2019-02-23T09:28:27.879Z,14.27
2019-02-23T09:30:56.884Z,17.93
2019-02-23T09:33:25.861Z,13.67
2019-02-23T09:35:54.862Z,19.60
2019-02-23T09:38:24.029Z,15.70
2019-02-23T09:40:53.516Z,14.03
2019-02-23T09:43:23.530Z,29.27
2019-02-23T09:45:52.349Z,16.67
2019-02-23T09:48:21.333Z,14.70
2019-02-23T09:50:50.159Z,14.90
2019-02-23T09:53:19.278Z,13.97
2019-02-23T09:55:48.301Z,13.37
2019-02-23T09:58:17.474Z,14.90
2019-02-23T10:00:46.320Z,14.63
2019-02-23T10:03:15.350Z,18.23
2019-02-23T10:05:44.329Z,11.10
2019-02-23T10:08:13.499Z,11.60
2019-02-23T10:10:42.524Z,10.57
2019-02-23T10:13:11.455Z,11.47
2019-02-23T10:15:40.305Z,9.17
2019-02-23T10:18:09.332Z,14.10
2019-02-23T10:20:38.205Z,8.90
2019-02-23T10:23:07.030Z,37.90
2019-02-23T10:25:35.873Z,11.03
2019-02-23T10:28:04.641Z,16.33
2019-02-23T10:30:33.490Z,9.70
2019-02-23T10:33:02.394Z,34.23
2019-02-23T10:35:31.247Z,21.10
2019-02-23T10:38:00.216Z,17.27
2019-02-23T10:40:29.013Z,8.37
2019-02-23T10:42:57.703Z,10.33
2019-02-23T10:45:26.607Z,7.87
2019-02-23T10:47:55.559Z,11.67
2019-02-23T10:50:24.347Z,17.97
2019-02-23T10:52:53.070Z,8.53
2019-02-23T10:55:21.910Z,34.13
2019-02-23T10:57:50.850Z,11.23
2019-02-23T11:00:20.971Z,14.83
2019-02-23T11:02:49.962Z,9.63
2019-02-23T11:05:19.061Z,38.73
2019-02-23T11:07:48.071Z,9.10
2019-02-23T11:10:18.072Z,9.00
2019-02-23T11:12:47.224Z,9.23
2019-02-23T11:15:18.222Z,12.43
2019-02-23T11:17:47.226Z,8.67
2019-02-23T11:20:17.264Z,8.00
2019-02-23T11:22:46.070Z,8.40
2019-02-23T11:25:15.124Z,8.60
2019-02-23T11:27:44.067Z,7.50
2019-02-23T11:30:16.763Z,9.10
2019-02-23T11:32:45.606Z,12.23
2019-02-23T11:35:17.343Z,9.83
2019-02-23T11:37:46.534Z,7.40
2019-02-23T11:40:16.406Z,7.60
2019-02-23T11:42:46.481Z,7.67
2019-02-23T11:45:15.494Z,7.90
2019-02-23T11:47:44.395Z,7.43
2019-02-23T11:50:16.160Z,8.33
2019-02-23T11:52:45.032Z,7.73
2019-02-23T11:55:13.953Z,7.90
2019-02-23T11:57:42.713Z,8.27
2019-02-23T12:00:15.606Z,8.47
2019-02-23T12:02:51.940Z,7.23
2019-02-23T12:05:14.913Z,8.33
2019-02-23T12:07:43.697Z,8.33
2019-02-23T12:10:17.111Z,7.10
2019-02-23T12:12:46.382Z,8.20
2019-02-23T12:15:15.506Z,6.80
2019-02-23T12:17:44.380Z,8.40
2019-02-23T12:20:13.176Z,8.03
2019-02-23T12:22:41.991Z,7.30
2019-02-23T12:25:13.022Z,7.90
2019-02-23T12:27:41.441Z,10.10
2019-02-23T12:30:11.749Z,20.73
2019-02-23T12:32:40.712Z,8.33
2019-02-23T12:35:10.931Z,7.67
2019-02-23T12:37:39.816Z,7.47
2019-02-23T12:40:10.109Z,8.03
2019-02-23T12:42:38.998Z,15.03
2019-02-23T12:45:12.549Z,8.63
2019-02-23T12:47:41.396Z,8.57
2019-02-23T12:50:11.840Z,7.57
2019-02-23T12:52:40.574Z,9.13
2019-02-23T12:55:11.843Z,9.20
2019-02-23T12:57:40.896Z,8.53
2019-02-23T13:00:12.902Z,7.70
2019-02-23T13:02:41.883Z,8.37
2019-02-23T13:05:10.752Z,8.60
2019-02-23T13:07:39.670Z,9.23
2019-02-23T13:10:11.450Z,8.57
2019-02-23T13:12:49.220Z,8.60
2019-02-23T13:15:30.483Z,8.70
2019-02-23T13:18:14.631Z,9.30
2019-02-23T13:20:46.488Z,8.50
2019-02-23T13:23:36.520Z,8.43
2019-02-23T13:26:27.819Z,8.75
2019-02-23T13:29:14.507Z,7.43
2019-02-23T13:31:58.216Z,7.67
2019-02-23T13:34:44.910Z,8.77
2019-02-23T13:37:25.852Z,11.00
2019-02-23T13:40:00.365Z,9.07
2019-02-23T13:42:34.990Z,9.40
2019-02-23T13:45:06.789Z,9.10
2019-02-23T13:47:50.376Z,8.43
2019-02-23T13:50:25.051Z,8.10
2019-02-23T13:53:18.085Z,8.10
2019-02-23T13:56:04.691Z,8.63
2019-02-23T13:58:39.041Z,8.57
2019-02-23T14:01:13.734Z,8.23
2019-02-23T14:03:48.080Z,8.30
2019-02-23T14:06:28.681Z,13.77
2019-02-23T14:09:03.217Z,8.43
2019-02-23T14:11:47.219Z,8.87
2019-02-23T14:14:18.978Z,8.83
2019-02-23T14:16:52.375Z,8.77
2019-02-23T14:19:36.023Z,9.87
2019-02-23T14:22:10.317Z,8.63
2019-02-23T14:24:49.808Z,8.63
2019-02-23T14:27:18.488Z,9.33
2019-02-23T14:29:52.818Z,8.60
2019-02-23T14:32:39.432Z,23.53
2019-02-23T14:35:36.831Z,40.77
2019-02-23T14:38:23.603Z,21.40
2019-02-23T14:41:24.304Z,14.67
2019-02-23T14:44:17.500Z,7.67
2019-02-23T14:47:00.912Z,8.07
2019-02-23T14:49:35.319Z,8.80
2019-02-23T14:52:35.835Z,8.87
2019-02-23T14:55:10.827Z,8.50
2019-02-23T14:58:17.281Z,9.23
2019-02-23T15:01:08.496Z,9.60
2019-02-23T15:03:40.336Z,10.40
2019-02-23T15:06:27.052Z,10.70
2019-02-23T15:09:07.669Z,11.80
2019-02-23T15:11:45.102Z,13.10
2019-02-23T15:14:25.760Z,11.43
2019-02-23T15:17:13.863Z,10.40
2019-02-23T15:19:54.501Z,9.87
2019-02-23T15:22:48.420Z,11.47
2019-02-23T15:25:38.998Z,10.33
2019-02-23T15:28:37.748Z,9.77
2019-02-23T15:31:14.741Z,24.77
2019-02-23T15:33:52.339Z,13.73
2019-02-23T15:36:27.158Z,11.00
2019-02-23T15:38:58.951Z,9.43
2019-02-23T15:41:30.841Z,9.03
2019-02-23T15:44:05.592Z,9.77
2019-02-23T15:46:43.162Z,9.83
2019-02-23T15:49:31.334Z,9.63
2019-02-23T15:52:01.613Z,11.90
2019-02-23T15:54:30.640Z,10.20
2019-02-23T15:56:59.528Z,11.20
2019-02-23T15:59:28.803Z,9.93
2019-02-23T16:01:57.920Z,10.00
2019-02-23T16:04:26.752Z,10.27
2019-02-23T16:06:55.676Z,9.83
2019-02-23T16:09:24.501Z,9.93
2019-02-23T16:11:53.500Z,9.07
2019-02-23T16:14:22.231Z,11.90
2019-02-23T16:16:51.067Z,20.07
2019-02-23T16:19:19.894Z,11.43
2019-02-23T16:21:48.866Z,25.70
2019-02-23T16:24:17.846Z,14.37
2019-02-23T16:26:46.684Z,12.20
2019-02-23T16:29:15.574Z,10.10
2019-02-23T16:31:44.408Z,10.43
2019-02-23T16:34:13.175Z,8.47
2019-02-23T16:36:42.096Z,10.20
2019-02-23T16:39:11.013Z,8.50
2019-02-23T16:41:39.857Z,8.40
2019-02-23T16:44:08.875Z,9.03
2019-02-23T16:46:37.734Z,8.63
2019-02-23T16:49:06.702Z,9.10
2019-02-23T16:51:35.514Z,9.40
2019-02-23T16:54:04.351Z,9.33
2019-02-23T16:56:33.127Z,9.10
2019-02-23T16:59:02.041Z,12.17
2019-02-23T17:01:31.317Z,38.93
2019-02-23T17:04:00.036Z,70.50
2019-02-23T17:06:29.070Z,18.67
2019-02-23T17:08:58.013Z,12.63
2019-02-23T17:11:26.933Z,11.63
2019-02-23T17:13:56.011Z,9.87
2019-02-23T17:16:24.974Z,10.80
2019-02-23T17:18:53.813Z,11.80
2019-02-23T17:21:22.991Z,10.13
2019-02-23T17:23:51.690Z,12.13
2019-02-23T17:26:20.510Z,57.60
2019-02-23T17:28:49.379Z,58.10
2019-02-23T17:31:18.404Z,85.03
2019-02-23T17:33:47.318Z,45.50
2019-02-23T17:36:16.334Z,53.63
2019-02-23T17:38:45.280Z,110.53
2019-02-23T17:41:14.211Z,31.83
2019-02-23T17:43:43.138Z,28.43
2019-02-23T17:46:12.012Z,28.60
2019-02-23T17:48:41.358Z,29.37
2019-02-23T17:51:10.511Z,48.97
2019-02-23T17:53:39.470Z,31.77
2019-02-23T17:56:12.319Z,40.00
2019-02-23T17:58:39.772Z,58.87
2019-02-23T18:01:08.702Z,37.20
2019-02-23T18:03:37.516Z,41.97
2019-02-23T18:06:06.325Z,40.00
2019-02-23T18:08:35.149Z,44.53
2019-02-23T18:11:03.936Z,64.93
2019-02-23T18:13:33.057Z,97.30
2019-02-23T18:16:01.958Z,63.63
2019-02-23T18:18:30.866Z,39.83
2019-02-23T18:20:59.762Z,34.87
2019-02-23T18:23:28.655Z,30.87
2019-02-23T18:25:57.567Z,33.80
2019-02-23T18:28:26.504Z,38.17
2019-02-23T18:30:55.706Z,37.13
2019-02-23T18:33:24.627Z,35.53
2019-02-23T18:35:53.486Z,33.67
2019-02-23T18:38:22.442Z,33.87
2019-02-23T18:40:51.434Z,33.60
2019-02-23T18:43:20.531Z,33.07
2019-02-23T18:45:49.602Z,41.13
2019-02-23T18:48:18.386Z,33.00
2019-02-23T18:50:47.317Z,30.37
2019-02-23T18:53:16.548Z,31.53
2019-02-23T18:55:45.474Z,30.70
2019-02-23T18:58:14.409Z,28.90
2019-02-23T19:00:43.316Z,28.47
2019-02-23T19:03:12.344Z,28.87
2019-02-23T19:05:49.558Z,28.83
2019-02-23T19:08:11.853Z,33.47
2019-02-23T19:10:40.871Z,28.07
2019-02-23T19:13:10.113Z,34.33
2019-02-23T19:15:39.122Z,35.43
2019-02-23T19:18:08.155Z,40.07
2019-02-23T19:20:37.140Z,36.20
2019-02-23T19:23:06.208Z,41.13
2019-02-23T19:25:35.099Z,35.00
2019-02-23T19:28:04.535Z,34.80
2019-02-23T19:30:34.033Z,34.67
2019-02-23T19:33:02.956Z,40.53
2019-02-23T19:35:31.929Z,52.00
2019-02-23T19:38:00.813Z,47.33
2019-02-23T19:40:30.008Z,38.63
2019-02-23T19:42:59.216Z,35.67
2019-02-23T19:45:27.986Z,39.47
2019-02-23T19:47:56.685Z,33.30
2019-02-23T19:50:34.387Z,32.00
2019-02-23T19:53:03.961Z,31.83
2019-02-23T19:55:33.508Z,32.57
2019-02-23T19:58:02.599Z,28.90
2019-02-23T20:00:31.425Z,26.33
2019-02-23T20:03:00.295Z,25.57
2019-02-23T20:05:29.222Z,27.73
2019-02-23T20:07:58.092Z,27.50
2019-02-23T20:10:26.954Z,26.60
2019-02-23T20:12:56.043Z,20.70
2019-02-23T20:15:25.183Z,25.07
2019-02-23T20:17:54.481Z,22.53
2019-02-23T20:20:23.443Z,23.50
2019-02-23T20:22:52.603Z,20.63
2019-02-23T20:25:21.899Z,26.90
2019-02-23T20:27:50.971Z,29.97
2019-02-23T20:30:20.199Z,33.67
2019-02-23T20:32:49.172Z,27.67
2019-02-23T20:35:18.878Z,29.27
2019-02-23T20:37:47.842Z,29.13
2019-02-23T20:40:16.756Z,32.33
2019-02-23T20:42:54.063Z,32.03
2019-02-23T20:45:20.243Z,29.97
2019-02-23T20:47:49.169Z,29.53
2019-02-23T20:50:18.274Z,34.03
2019-02-23T20:52:47.275Z,36.80
2019-02-23T20:55:16.545Z,38.33
2019-02-23T20:57:45.709Z,35.47
2019-02-23T21:00:14.859Z,33.23
2019-02-23T21:02:43.977Z,29.30
2019-02-23T21:05:14.243Z,42.03
2019-02-23T21:07:43.086Z,34.57
2019-02-23T21:10:12.076Z,33.70
2019-02-23T21:12:41.039Z,29.70
2019-02-23T21:15:11.426Z,30.60
2019-02-23T21:17:40.584Z,31.57
2019-02-23T21:20:11.011Z,36.30
2019-02-23T21:22:39.958Z,36.53
2019-02-23T21:25:09.831Z,34.03
2019-02-23T21:27:38.919Z,36.37
2019-02-23T21:30:10.020Z,32.10
2019-02-23T21:32:38.900Z,32.43
2019-02-23T21:35:08.935Z,31.07
2019-02-23T21:37:38.075Z,29.97
2019-02-23T21:40:12.199Z,31.07
2019-02-23T21:42:41.279Z,29.60
2019-02-23T21:45:10.484Z,38.80
2019-02-23T21:47:39.219Z,58.63
2019-02-23T21:50:09.880Z,58.30
2019-02-23T21:52:38.643Z,50.37
2019-02-23T21:55:07.608Z,67.37
2019-02-23T21:57:36.581Z,62.50
2019-02-23T22:00:07.872Z,59.27
2019-02-23T22:02:36.944Z,63.10
2019-02-23T22:05:12.293Z,68.17
2019-02-23T22:07:36.866Z,77.43
2019-02-23T22:10:08.492Z,98.23
2019-02-23T22:12:37.427Z,99.43
2019-02-23T22:15:07.812Z,96.03
2019-02-23T22:17:36.750Z,105.33
2019-02-23T22:20:06.810Z,133.07
2019-02-23T22:22:35.680Z,120.13
2019-02-23T22:25:04.936Z,98.40
2019-02-23T22:27:33.795Z,95.97
2019-02-23T22:30:02.690Z,95.17
2019-02-23T22:32:31.663Z,105.07
2019-02-23T22:35:00.634Z,111.57
2019-02-23T22:37:29.581Z,101.40
2019-02-23T22:39:58.376Z,95.63
2019-02-23T22:42:27.215Z,94.13
2019-02-23T22:44:56.108Z,100.00
2019-02-23T22:47:25.026Z,119.90
2019-02-23T22:49:53.800Z,123.30
2019-02-23T22:52:22.658Z,112.83
2019-02-23T22:54:51.502Z,106.93
2019-02-23T22:57:20.261Z,106.03
2019-02-23T22:59:49.136Z,96.50
2019-02-23T23:02:17.868Z,74.97
2019-02-23T23:04:46.811Z,72.77
2019-02-23T23:07:15.873Z,66.97
2019-02-23T23:09:44.631Z,72.63
2019-02-23T23:12:13.587Z,74.17
2019-02-23T23:14:42.289Z,67.87
2019-02-23T23:17:11.021Z,66.90
2019-02-23T23:19:39.860Z,60.70
2019-02-23T23:22:08.643Z,54.00
2019-02-23T23:24:37.487Z,49.07
2019-02-23T23:27:06.284Z,40.60
2019-02-23T23:29:35.211Z,37.73
2019-02-23T23:32:04.201Z,35.67
2019-02-23T23:34:33.236Z,36.77
2019-02-23T23:37:01.975Z,34.20
2019-02-23T23:39:30.799Z,35.93
2019-02-23T23:41:59.721Z,36.10
2019-02-23T23:44:28.510Z,41.30
2019-02-23T23:46:57.346Z,43.10
2019-02-23T23:49:26.165Z,37.10
2019-02-23T23:51:54.975Z,36.53
2019-02-23T23:54:23.766Z,38.90
2019-02-23T23:56:52.569Z,40.57
2019-02-23T23:59:21.321Z,34.17
